Time;durP1;ratioP1;P1;durP2;ratioP2;P2;SDS_P1;SDS_P2;PMS_P1;PMS_P2;Temp;Humidity;BMP_temperature;BMP_pressure;BME280_temperature;BME280_humidity;BME280_pressure;Samples;Min_cycle;Max_cycle;Signal;HPM_P1;HPM_P2
2022/03/05 00:01:27;;;;;;;21.17;11.80;;;;;;;;;;6096568;23;20073;-76
2022/03/05 00:03:53;;;;;;;19.45;11.45;;;;;;;;;;6096322;23;20028;-76
2022/03/05 00:06:19;;;;;;;19.35;10.95;;;;;;;;;;6072702;23;20025;-76
2022/03/05 00:08:46;;;;;;;16.30;10.57;;;;;;;;;;6096493;23;20045;-76
2022/03/05 00:11:11;;;;;;;17.77;10.77;;;;;;;;;;6096588;23;20017;-76
2022/03/05 00:13:37;;;;;;;17.20;10.73;;;;;;;;;;6096710;23;20010;-76
2022/03/05 00:16:04;;;;;;;16.55;11.20;;;;;;;;;;6072634;23;20014;-76
2022/03/05 00:18:30;;;;;;;19.20;10.57;;;;;;;;;;6072485;23;20054;-76
2022/03/05 00:20:56;;;;;;;17.25;10.68;;;;;;;;;;6096471;23;20014;-76
2022/03/05 00:23:22;;;;;;;19.55;10.85;;;;;;;;;;6096816;23;20020;-76
2022/03/05 00:25:49;;;;;;;19.23;11.48;;;;;;;;;;6098443;23;20025;-76
2022/03/05 00:28:15;;;;;;;15.95;10.05;;;;;;;;;;6098466;23;20671;-76
2022/03/05 00:30:41;;;;;;;19.35;11.30;;;;;;;;;;6099144;23;20018;-76
2022/03/05 00:33:08;;;;;;;15.20;9.32;;;;;;;;;;6098940;23;20388;-76
2022/03/05 00:35:34;;;;;;;17.80;10.23;;;;;;;;;;6098370;23;20025;-77
2022/03/05 00:38:00;;;;;;;16.55;10.00;;;;;;;;;;6098825;23;20134;-77
2022/03/05 00:40:26;;;;;;;16.50;11.10;;;;;;;;;;6098581;23;20700;-76
2022/03/05 00:42:52;;;;;;;17.58;10.75;;;;;;;;;;6074359;23;20017;-76
2022/03/05 00:45:18;;;;;;;18.90;9.68;;;;;;;;;;6098269;23;20014;-76
2022/03/05 00:47:44;;;;;;;17.05;9.63;;;;;;;;;;6074362;23;20393;-76
2022/03/05 00:50:10;;;;;;;17.50;10.13;;;;;;;;;;6098296;23;20049;-76
2022/03/05 00:52:37;;;;;;;15.68;10.05;;;;;;;;;;6098677;23;20065;-76
2022/03/05 00:55:04;;;;;;;16.42;10.30;;;;;;;;;;6098492;23;20019;-76
2022/03/05 00:57:30;;;;;;;19.27;11.00;;;;;;;;;;6074400;23;20451;-76
2022/03/05 00:59:56;;;;;;;17.42;10.27;;;;;;;;;;6098050;23;20028;-76
2022/03/05 01:02:22;;;;;;;17.05;10.60;;;;;;;;;;6098219;23;20105;-76
2022/03/05 01:04:48;;;;;;;17.30;10.68;;;;;;;;;;6074139;23;20014;-76
2022/03/05 01:07:14;;;;;;;18.10;10.13;;;;;;;;;;6098191;23;20105;-76
2022/03/05 01:09:40;;;;;;;17.85;10.93;;;;;;;;;;6098252;23;20405;-75
2022/03/05 01:12:06;;;;;;;20.35;10.75;;;;;;;;;;6098683;23;20021;-76
2022/03/05 01:14:32;;;;;;;17.55;9.50;;;;;;;;;;6098596;23;20017;-76
2022/03/05 01:16:58;;;;;;;16.55;9.90;;;;;;;;;;6098273;23;20018;-76
2022/03/05 01:19:25;;;;;;;18.80;10.18;;;;;;;;;;6098289;23;20026;-76
2022/03/05 01:21:51;;;;;;;17.15;11.00;;;;;;;;;;6098546;23;20062;-76
2022/03/05 01:24:17;;;;;;;19.77;12.00;;;;;;;;;;6098272;23;20486;-76
2022/03/05 01:26:43;;;;;;;17.95;10.60;;;;;;;;;;6098119;23;20034;-76
2022/03/05 01:29:09;;;;;;;18.55;11.23;;;;;;;;;;6074042;23;20018;-75
2022/03/05 01:31:35;;;;;;;17.15;10.00;;;;;;;;;;6098116;23;20080;-76
2022/03/05 01:34:02;;;;;;;19.00;10.15;;;;;;;;;;6098112;23;20428;-75
2022/03/05 01:36:28;;;;;;;17.77;9.60;;;;;;;;;;6073491;23;20013;-75
2022/03/05 01:38:54;;;;;;;17.63;9.88;;;;;;;;;;6097823;23;20513;-75
2022/03/05 01:41:20;;;;;;;16.30;10.05;;;;;;;;;;6074100;23;20018;-75
2022/03/05 01:43:50;;;;;;;18.60;11.23;;;;;;;;;;6098023;23;20097;-75
2022/03/05 01:46:26;;;;;;;17.35;10.52;;;;;;;;;;6097988;23;20014;-76
2022/03/05 01:48:52;;;;;;;16.17;9.93;;;;;;;;;;6073989;23;20014;-76
2022/03/05 01:51:18;;;;;;;18.67;11.00;;;;;;;;;;6097841;23;20014;-75
2022/03/05 01:53:44;;;;;;;19.88;9.95;;;;;;;;;;6097804;23;20018;-76
2022/03/05 01:56:10;;;;;;;18.25;10.13;;;;;;;;;;6098248;23;20711;-75
2022/03/05 01:58:36;;;;;;;18.00;10.18;;;;;;;;;;6097767;23;20614;-76
2022/03/05 02:01:02;;;;;;;17.73;10.25;;;;;;;;;;6073796;23;20018;-76
2022/03/05 02:03:29;;;;;;;19.02;9.88;;;;;;;;;;6097590;23;20101;-75
2022/03/05 02:05:54;;;;;;;18.67;10.43;;;;;;;;;;6097456;23;20396;-75
2022/03/05 02:08:20;;;;;;;19.35;11.15;;;;;;;;;;6097942;23;20105;-76
2022/03/05 02:10:46;;;;;;;17.63;10.68;;;;;;;;;;6097419;23;20353;-76
2022/03/05 02:13:12;;;;;;;20.15;10.90;;;;;;;;;;6073700;23;20032;-75
2022/03/05 02:15:38;;;;;;;20.98;11.70;;;;;;;;;;6073583;23;20014;-75
2022/03/05 02:18:05;;;;;;;21.25;11.55;;;;;;;;;;6097438;23;20014;-75
2022/03/05 02:20:30;;;;;;;18.42;10.63;;;;;;;;;;6097607;23;20433;-75
2022/03/05 02:22:57;;;;;;;20.55;11.60;;;;;;;;;;6097510;23;20010;-75
2022/03/05 02:25:22;;;;;;;16.35;10.23;;;;;;;;;;6097335;23;20101;-75
2022/03/05 02:27:48;;;;;;;19.13;11.30;;;;;;;;;;6097391;23;20026;-75
2022/03/05 02:30:14;;;;;;;17.80;10.10;;;;;;;;;;6097057;23;20061;-75
2022/03/05 02:32:40;;;;;;;17.02;9.70;;;;;;;;;;6097020;23;20088;-75
2022/03/05 02:35:06;;;;;;;19.00;9.98;;;;;;;;;;6097367;23;20020;-76
2022/03/05 02:37:32;;;;;;;18.83;11.02;;;;;;;;;;6096714;23;20066;-76
2022/03/05 02:39:58;;;;;;;20.73;10.27;;;;;;;;;;6073287;23;20014;-76
2022/03/05 02:42:25;;;;;;;19.08;10.90;;;;;;;;;;6097218;23;20022;-76
2022/03/05 02:44:51;;;;;;;19.15;11.15;;;;;;;;;;6097414;23;20025;-75
2022/03/05 02:47:17;;;;;;;17.85;10.25;;;;;;;;;;6097079;23;20013;-75
2022/03/05 02:49:43;;;;;;;21.98;11.35;;;;;;;;;;6097229;23;20022;-76
2022/03/05 02:52:09;;;;;;;18.67;11.18;;;;;;;;;;6097099;23;20017;-76
2022/03/05 02:54:35;;;;;;;18.80;11.57;;;;;;;;;;6097278;23;20689;-75
2022/03/05 02:57:01;;;;;;;19.45;10.68;;;;;;;;;;6097259;23;20052;-75
2022/03/05 02:59:27;;;;;;;20.08;11.18;;;;;;;;;;6097309;23;20340;-76
2022/03/05 03:01:53;;;;;;;23.45;11.45;;;;;;;;;;6073081;23;20085;-75
2022/03/05 03:04:19;;;;;;;21.20;11.57;;;;;;;;;;6097051;23;20022;-75
2022/03/05 03:06:45;;;;;;;18.38;10.57;;;;;;;;;;6096718;23;20017;-75
2022/03/05 03:09:11;;;;;;;20.42;10.98;;;;;;;;;;6097180;23;20444;-75
2022/03/05 03:11:37;;;;;;;20.38;11.35;;;;;;;;;;6097014;23;20014;-75
2022/03/05 03:14:03;;;;;;;18.58;10.48;;;;;;;;;;6096965;23;20018;-75
2022/03/05 03:16:29;;;;;;;17.80;10.18;;;;;;;;;;6096948;23;20057;-75
2022/03/05 03:18:55;;;;;;;19.45;11.02;;;;;;;;;;6096998;23;20024;-75
2022/03/05 03:21:21;;;;;;;18.60;11.32;;;;;;;;;;6072778;23;20017;-75
2022/03/05 03:23:47;;;;;;;20.08;11.13;;;;;;;;;;6096710;23;20072;-76
2022/03/05 03:26:13;;;;;;;20.27;11.10;;;;;;;;;;6096771;23;20550;-75
2022/03/05 03:28:39;;;;;;;19.80;11.43;;;;;;;;;;6096856;23;20053;-75
2022/03/05 03:31:05;;;;;;;18.38;11.23;;;;;;;;;;6096906;23;20077;-75
2022/03/05 03:33:31;;;;;;;20.40;11.20;;;;;;;;;;6096936;23;20010;-75
2022/03/05 03:35:57;;;;;;;21.17;11.05;;;;;;;;;;6096658;23;20097;-75
2022/03/05 03:38:23;;;;;;;18.48;10.60;;;;;;;;;;6096467;23;20017;-75
2022/03/05 03:40:49;;;;;;;17.88;10.45;;;;;;;;;;6072790;23;20060;-75
2022/03/05 03:43:15;;;;;;;19.88;10.82;;;;;;;;;;6072779;23;20018;-75
2022/03/05 03:45:41;;;;;;;19.75;11.50;;;;;;;;;;6096637;23;20344;-76
2022/03/05 03:48:07;;;;;;;19.20;10.80;;;;;;;;;;6072961;23;20092;-75
2022/03/05 03:50:34;;;;;;;20.05;11.40;;;;;;;;;;6073012;23;20046;-76
2022/03/05 03:53:00;;;;;;;19.95;12.00;;;;;;;;;;6096547;23;20444;-75
2022/03/05 03:55:26;;;;;;;19.67;11.50;;;;;;;;;;6096482;23;20010;-75
2022/03/05 03:57:52;;;;;;;19.08;11.02;;;;;;;;;;6072471;23;20013;-76
2022/03/05 04:00:18;;;;;;;21.05;12.02;;;;;;;;;;6096691;23;20092;-75
2022/03/05 04:02:44;;;;;;;20.13;10.80;;;;;;;;;;6096112;23;20018;-75
2022/03/05 04:05:11;;;;;;;19.00;10.80;;;;;;;;;;6122485;23;20049;-76
2022/03/05 04:10:21;;;;;;;20.02;11.00;;;;;;;;;;6096502;23;20093;-75
2022/03/05 04:12:47;;;;;;;18.02;10.30;;;;;;;;;;6096440;23;20045;-75
2022/03/05 04:15:13;;;;;;;19.25;11.10;;;;;;;;;;6096421;23;20511;-75
2022/03/05 04:17:39;;;;;;;21.83;11.57;;;;;;;;;;6096330;23;20061;-75
2022/03/05 04:20:07;;;;;;;19.95;11.10;;;;;;;;;;6096323;23;20014;-75
2022/03/05 04:22:33;;;;;;;20.35;11.43;;;;;;;;;;6096370;23;20022;-75
2022/03/05 04:24:59;;;;;;;21.60;10.90;;;;;;;;;;6072215;23;20014;-75
2022/03/05 04:27:25;;;;;;;18.75;11.40;;;;;;;;;;6096403;23;20014;-75
2022/03/05 04:29:51;;;;;;;17.90;10.35;;;;;;;;;;6096226;23;20022;-75
2022/03/05 04:32:17;;;;;;;19.73;11.85;;;;;;;;;;6096385;23;20075;-75
2022/03/05 04:34:43;;;;;;;20.85;12.25;;;;;;;;;;6095962;23;20014;-75
2022/03/05 04:37:09;;;;;;;19.52;11.70;;;;;;;;;;6096070;23;20579;-75
2022/03/05 04:39:35;;;;;;;20.88;11.55;;;;;;;;;;6096381;23;20022;-75
2022/03/05 04:42:01;;;;;;;17.73;11.32;;;;;;;;;;6096363;23;20021;-75
2022/03/05 04:44:27;;;;;;;19.25;11.63;;;;;;;;;;6096380;23;20102;-75
2022/03/05 04:46:53;;;;;;;20.02;11.40;;;;;;;;;;6096138;23;20695;-76
2022/03/05 04:49:19;;;;;;;19.30;10.70;;;;;;;;;;6096353;23;20087;-75
2022/03/05 04:51:45;;;;;;;20.98;11.15;;;;;;;;;;6096481;23;20098;-76
2022/03/05 04:54:11;;;;;;;20.48;11.55;;;;;;;;;;6072354;23;20014;-76
2022/03/05 04:56:38;;;;;;;19.67;11.48;;;;;;;;;;6096341;23;20037;-75
2022/03/05 04:59:04;;;;;;;17.58;10.77;;;;;;;;;;6096622;23;20053;-75
2022/03/05 05:01:30;;;;;;;18.85;11.05;;;;;;;;;;6096021;23;20025;-75
2022/03/05 05:03:56;;;;;;;18.88;11.05;;;;;;;;;;6096324;23;20052;-75
2022/03/05 05:06:22;;;;;;;19.13;10.80;;;;;;;;;;6072068;23;20018;-75
2022/03/05 05:08:48;;;;;;;17.85;10.60;;;;;;;;;;6072251;23;20021;-75
2022/03/05 05:11:15;;;;;;;17.50;9.98;;;;;;;;;;6098249;23;20049;-75
2022/03/05 05:13:41;;;;;;;16.35;9.43;;;;;;;;;;6073992;23;20014;-75
2022/03/05 05:16:07;;;;;;;16.65;10.85;;;;;;;;;;6097970;23;20024;-76
2022/03/05 05:18:33;;;;;;;17.20;10.40;;;;;;;;;;6074098;23;20097;-76
2022/03/05 05:20:59;;;;;;;18.50;11.05;;;;;;;;;;6097820;23;20077;-76
2022/03/05 05:23:25;;;;;;;20.20;11.18;;;;;;;;;;6098105;23;20013;-76
2022/03/05 05:25:51;;;;;;;20.13;11.60;;;;;;;;;;6073932;23;20385;-76
2022/03/05 05:28:17;;;;;;;19.52;11.35;;;;;;;;;;6097671;23;20014;-76
2022/03/05 05:30:43;;;;;;;20.90;11.98;;;;;;;;;;6097998;23;20026;-76
2022/03/05 05:33:09;;;;;;;21.98;12.13;;;;;;;;;;6073836;23;20042;-76
2022/03/05 05:35:36;;;;;;;20.25;11.18;;;;;;;;;;6097695;23;20096;-75
2022/03/05 05:38:01;;;;;;;18.58;11.30;;;;;;;;;;6097704;23;20475;-75
2022/03/05 05:40:27;;;;;;;21.02;11.50;;;;;;;;;;6097712;23;20093;-75
2022/03/05 05:42:53;;;;;;;18.88;12.07;;;;;;;;;;6097765;23;20029;-75
2022/03/05 05:45:19;;;;;;;20.17;11.93;;;;;;;;;;6097611;23;20006;-75
2022/03/05 05:47:45;;;;;;;19.10;11.38;;;;;;;;;;6097425;23;20069;-76
2022/03/05 05:50:12;;;;;;;22.98;12.00;;;;;;;;;;6123661;23;20640;-75
2022/03/05 05:52:39;;;;;;;20.17;12.23;;;;;;;;;;6123549;23;20036;-75
2022/03/05 05:55:05;;;;;;;18.52;11.68;;;;;;;;;;6097635;23;20046;-75
2022/03/05 05:57:31;;;;;;;19.20;12.27;;;;;;;;;;6073536;23;20021;-76
2022/03/05 05:59:57;;;;;;;21.00;12.55;;;;;;;;;;6097549;23;20471;-76
2022/03/05 06:02:23;;;;;;;18.73;11.48;;;;;;;;;;6097490;23;20025;-76
2022/03/05 06:04:49;;;;;;;20.75;11.52;;;;;;;;;;6097588;23;20357;-76
2022/03/05 06:07:15;;;;;;;23.35;13.13;;;;;;;;;;6073304;23;20540;-76
2022/03/05 06:09:41;;;;;;;21.38;12.15;;;;;;;;;;6097418;23;20010;-75
2022/03/05 06:12:08;;;;;;;18.98;11.63;;;;;;;;;;6073383;23;20539;-75
2022/03/05 06:14:34;;;;;;;19.38;11.80;;;;;;;;;;6097177;23;20364;-76
2022/03/05 06:17:00;;;;;;;20.67;11.68;;;;;;;;;;6097506;23;20022;-75
2022/03/05 06:19:26;;;;;;;22.00;12.00;;;;;;;;;;6073406;23;20018;-75
2022/03/05 06:21:53;;;;;;;19.63;12.38;;;;;;;;;;6097191;23;20470;-75
2022/03/05 06:24:19;;;;;;;20.42;11.98;;;;;;;;;;6097175;23;20085;-76
2022/03/05 06:26:45;;;;;;;20.30;12.15;;;;;;;;;;6097339;23;20056;-76
2022/03/05 06:29:11;;;;;;;18.90;12.32;;;;;;;;;;6097140;23;20056;-75
2022/03/05 06:31:37;;;;;;;19.17;12.50;;;;;;;;;;6097408;23;20014;-75
2022/03/05 06:34:03;;;;;;;19.60;11.98;;;;;;;;;;6097090;23;20088;-76
2022/03/05 06:36:29;;;;;;;22.48;12.70;;;;;;;;;;6096988;23;20069;-76
2022/03/05 06:38:56;;;;;;;21.88;12.18;;;;;;;;;;6097159;23;20018;-76
2022/03/05 06:41:22;;;;;;;19.08;11.50;;;;;;;;;;6097205;23;20018;-76
2022/03/05 06:43:48;;;;;;;18.55;11.90;;;;;;;;;;6097273;23;20018;-76
2022/03/05 06:46:14;;;;;;;19.95;13.50;;;;;;;;;;6097009;23;20045;-76
2022/03/05 06:48:40;;;;;;;20.42;13.10;;;;;;;;;;6096947;23;20018;-76
2022/03/05 06:51:06;;;;;;;19.75;12.18;;;;;;;;;;6096939;23;20016;-76
2022/03/05 06:53:32;;;;;;;19.15;12.77;;;;;;;;;;6073107;23;20041;-76
2022/03/05 06:55:58;;;;;;;19.83;11.95;;;;;;;;;;6097198;23;20028;-76
2022/03/05 06:58:24;;;;;;;19.15;11.35;;;;;;;;;;6096743;23;20018;-76
2022/03/05 07:00:50;;;;;;;21.80;13.65;;;;;;;;;;6096542;23;20041;-76
2022/03/05 07:03:16;;;;;;;21.80;13.18;;;;;;;;;;6096516;23;20033;-76
2022/03/05 07:05:42;;;;;;;21.80;13.38;;;;;;;;;;6096563;23;20020;-76
2022/03/05 07:08:08;;;;;;;22.05;13.38;;;;;;;;;;6072664;23;20474;-76
2022/03/05 07:10:34;;;;;;;21.58;12.93;;;;;;;;;;6095652;23;20049;-76
2022/03/05 07:13:00;;;;;;;21.13;13.18;;;;;;;;;;6096705;23;20089;-77
2022/03/05 07:15:26;;;;;;;22.33;13.48;;;;;;;;;;6071631;23;20045;-76
2022/03/05 07:17:53;;;;;;;21.77;13.52;;;;;;;;;;6094117;23;20226;-76
2022/03/05 07:20:20;;;;;;;19.40;12.43;;;;;;;;;;6094311;23;20029;-76
2022/03/05 07:22:46;;;;;;;23.20;13.95;;;;;;;;;;6094470;23;20028;-76
2022/03/05 07:25:12;;;;;;;22.92;13.50;;;;;;;;;;6095608;23;20018;-76
2022/03/05 07:27:39;;;;;;;22.27;12.95;;;;;;;;;;6095252;23;20475;-76
2022/03/05 07:30:05;;;;;;;21.85;13.13;;;;;;;;;;6094120;23;20018;-76
2022/03/05 07:32:31;;;;;;;20.65;12.02;;;;;;;;;;6070156;23;20254;-76
2022/03/05 07:34:57;;;;;;;21.30;12.93;;;;;;;;;;6095594;23;20483;-76
2022/03/05 07:37:23;;;;;;;23.77;13.82;;;;;;;;;;6096411;23;20232;-76
2022/03/05 07:39:49;;;;;;;19.98;12.52;;;;;;;;;;6094559;23;20095;-76
2022/03/05 07:42:15;;;;;;;20.73;12.65;;;;;;;;;;6094191;23;20022;-76
2022/03/05 07:44:41;;;;;;;21.92;12.80;;;;;;;;;;6094106;23;20025;-76
2022/03/05 07:47:07;;;;;;;21.83;12.95;;;;;;;;;;6094568;23;20093;-76
2022/03/05 07:49:33;;;;;;;21.02;11.85;;;;;;;;;;6070607;23;20018;-75
2022/03/05 07:51:59;;;;;;;22.60;13.25;;;;;;;;;;6094308;23;20037;-76
2022/03/05 07:54:26;;;;;;;20.83;12.93;;;;;;;;;;6093825;23;20020;-76
2022/03/05 07:56:52;;;;;;;23.05;12.65;;;;;;;;;;6094253;23;20295;-75
2022/03/05 07:59:18;;;;;;;22.27;13.48;;;;;;;;;;6094695;23;20029;-76
2022/03/05 08:01:44;;;;;;;21.42;12.38;;;;;;;;;;6094448;23;20496;-77
2022/03/05 08:04:10;;;;;;;22.48;13.95;;;;;;;;;;6094746;23;20100;-77
2022/03/05 08:06:37;;;;;;;20.98;13.20;;;;;;;;;;6094848;23;20056;-76
2022/03/05 08:09:03;;;;;;;22.00;13.80;;;;;;;;;;6094580;23;20014;-77
2022/03/05 08:11:29;;;;;;;23.60;14.27;;;;;;;;;;6095175;23;20444;-77
2022/03/05 08:13:55;;;;;;;22.52;13.80;;;;;;;;;;6095024;23;20065;-77
2022/03/05 08:16:21;;;;;;;24.98;13.80;;;;;;;;;;6094902;23;20021;-76
2022/03/05 08:18:47;;;;;;;23.48;13.55;;;;;;;;;;6094674;23;20018;-77
2022/03/05 08:21:13;;;;;;;20.63;12.85;;;;;;;;;;6070746;23;20044;-76
2022/03/05 08:23:39;;;;;;;19.88;12.90;;;;;;;;;;6094747;23;20018;-77
2022/03/05 08:26:10;;;;;;;21.88;13.30;;;;;;;;;;6094693;23;20014;-77
2022/03/05 08:28:36;;;;;;;25.05;14.30;;;;;;;;;;6092694;23;20073;-77
2022/03/05 08:31:02;;;;;;;23.25;14.68;;;;;;;;;;6095644;23;20018;-77
2022/03/05 08:33:29;;;;;;;25.60;14.57;;;;;;;;;;6070799;23;20010;-77
2022/03/05 08:35:56;;;;;;;22.88;13.63;;;;;;;;;;6094632;23;20683;-76
2022/03/05 08:38:22;;;;;;;22.65;14.00;;;;;;;;;;6070038;23;20010;-77
2022/03/05 08:40:48;;;;;;;22.63;13.30;;;;;;;;;;6094709;23;20014;-77
2022/03/05 08:43:14;;;;;;;23.55;13.85;;;;;;;;;;6094430;23;20368;-77
2022/03/05 08:45:40;;;;;;;21.65;14.13;;;;;;;;;;6095615;23;20014;-77
2022/03/05 08:48:06;;;;;;;20.15;13.63;;;;;;;;;;6096842;23;20324;-77
2022/03/05 08:50:32;;;;;;;20.35;13.43;;;;;;;;;;6072525;23;20014;-77
2022/03/05 08:52:58;;;;;;;19.20;12.02;;;;;;;;;;6072381;23;20009;-77
2022/03/05 08:55:24;;;;;;;23.98;12.98;;;;;;;;;;6096704;23;20470;-77
2022/03/05 08:57:51;;;;;;;18.77;12.43;;;;;;;;;;6072921;23;20013;-76
2022/03/05 09:00:17;;;;;;;19.00;12.30;;;;;;;;;;6096598;23;20045;-78
2022/03/05 09:02:43;;;;;;;20.17;12.40;;;;;;;;;;6096489;23;20014;-77
2022/03/05 09:05:09;;;;;;;20.30;12.32;;;;;;;;;;6096599;23;20025;-77
2022/03/05 09:07:35;;;;;;;21.73;12.48;;;;;;;;;;6096442;23;20017;-76
2022/03/05 09:10:01;;;;;;;22.52;12.25;;;;;;;;;;6096536;23;20018;-78
2022/03/05 09:12:27;;;;;;;20.17;12.15;;;;;;;;;;6096490;23;20389;-77
2022/03/05 09:14:53;;;;;;;21.00;12.45;;;;;;;;;;6096448;23;20018;-77
2022/03/05 09:17:19;;;;;;;19.83;12.10;;;;;;;;;;6096440;23;20404;-78
2022/03/05 09:19:45;;;;;;;20.25;12.73;;;;;;;;;;6096436;23;20100;-78
2022/03/05 09:22:11;;;;;;;18.73;11.57;;;;;;;;;;6096526;23;20343;-78
2022/03/05 09:24:38;;;;;;;19.15;13.15;;;;;;;;;;6096326;23;20018;-78
2022/03/05 09:27:05;;;;;;;18.98;12.35;;;;;;;;;;6096124;23;20092;-81
2022/03/05 09:29:30;;;;;;;20.70;13.10;;;;;;;;;;6096313;23;20068;-77
2022/03/05 09:31:56;;;;;;;21.27;13.05;;;;;;;;;;6096447;23;20447;-79
2022/03/05 09:34:22;;;;;;;19.42;11.63;;;;;;;;;;6072017;23;20101;-77
2022/03/05 09:36:48;;;;;;;21.77;12.65;;;;;;;;;;6072638;23;20452;-76
2022/03/05 09:39:15;;;;;;;19.20;12.73;;;;;;;;;;6096596;23;20097;-76
2022/03/05 09:41:41;;;;;;;19.20;11.98;;;;;;;;;;6096340;23;20018;-78
2022/03/05 09:44:07;;;;;;;20.48;12.25;;;;;;;;;;6095972;23;20042;-78
2022/03/05 09:46:34;;;;;;;20.00;11.95;;;;;;;;;;6095750;23;20022;-78
2022/03/05 09:49:02;;;;;;;20.63;12.70;;;;;;;;;;6096335;23;20014;-78
2022/03/05 09:51:28;;;;;;;20.13;12.95;;;;;;;;;;6096119;23;20022;-79
2022/03/05 09:53:54;;;;;;;19.88;12.38;;;;;;;;;;6095982;23;20014;-78
2022/03/05 09:56:20;;;;;;;20.35;12.15;;;;;;;;;;6095450;23;20014;-76
2022/03/05 09:58:47;;;;;;;20.45;11.60;;;;;;;;;;6096259;23;20018;-79
2022/03/05 10:01:14;;;;;;;20.60;11.82;;;;;;;;;;6071975;23;20010;-78
2022/03/05 10:03:50;;;;;;;19.73;12.07;;;;;;;;;;6095738;23;20017;-79
2022/03/05 10:06:16;;;;;;;20.67;12.27;;;;;;;;;;6095767;23;20029;-77
2022/03/05 10:08:43;;;;;;;21.10;12.07;;;;;;;;;;6071901;23;20460;-79
2022/03/05 10:11:11;;;;;;;19.80;12.30;;;;;;;;;;6095831;23;20042;-79
2022/03/05 10:13:38;;;;;;;20.00;12.48;;;;;;;;;;6095790;23;20025;-79
2022/03/05 10:16:06;;;;;;;21.85;13.15;;;;;;;;;;6095903;23;20037;-79
2022/03/05 10:18:33;;;;;;;21.88;13.25;;;;;;;;;;6095965;23;20123;-78
2022/03/05 10:21:00;;;;;;;19.65;12.77;;;;;;;;;;6095637;23;20045;-77
2022/03/05 10:23:30;;;;;;;19.33;12.73;;;;;;;;;;6071549;23;20364;-78
2022/03/05 10:25:56;;;;;;;20.38;12.95;;;;;;;;;;6071966;23;20467;-82
2022/03/05 10:28:24;;;;;;;22.80;13.00;;;;;;;;;;6071294;23;20018;-78
2022/03/05 10:30:51;;;;;;;20.20;11.98;;;;;;;;;;6095813;23;20018;-79
2022/03/05 10:33:32;;;;;;;20.65;12.50;;;;;;;;;;6095588;23;20378;-79
2022/03/05 10:36:00;;;;;;;20.65;13.27;;;;;;;;;;6095528;23;20349;-77
2022/03/05 10:38:46;;;;;;;18.40;12.20;;;;;;;;;;6071943;23;20316;-79
2022/03/05 10:41:13;;;;;;;19.75;12.88;;;;;;;;;;6095796;23;20380;-78
2022/03/05 10:43:39;;;;;;;19.67;12.77;;;;;;;;;;6094799;23;20049;-78
2022/03/05 10:46:06;;;;;;;20.48;12.73;;;;;;;;;;6071644;23;20042;-79
2022/03/05 10:48:33;;;;;;;19.73;13.65;;;;;;;;;;6095500;23;20014;-78
2022/03/05 10:51:04;;;;;;;20.98;13.40;;;;;;;;;;6071446;23;20486;-79
2022/03/05 10:53:41;;;;;;;21.15;13.85;;;;;;;;;;6095861;23;20081;-79
2022/03/05 10:56:27;;;;;;;20.02;13.07;;;;;;;;;;6095672;23;20017;-79
2022/03/05 10:59:02;;;;;;;19.65;12.95;;;;;;;;;;6095303;23;20421;-79
2022/03/05 11:01:29;;;;;;;21.27;13.35;;;;;;;;;;6095410;23;20045;-78
2022/03/05 11:03:56;;;;;;;21.55;13.68;;;;;;;;;;6095344;23;20068;-79
2022/03/05 11:06:22;;;;;;;18.75;13.23;;;;;;;;;;6095115;23;20017;-78
2022/03/05 11:08:48;;;;;;;20.92;13.77;;;;;;;;;;6095655;23;20410;-78
2022/03/05 11:11:18;;;;;;;20.45;13.60;;;;;;;;;;6095151;23;20014;-78
2022/03/05 11:13:44;;;;;;;21.65;14.93;;;;;;;;;;6071338;23;20402;-79
2022/03/05 11:16:11;;;;;;;20.10;13.77;;;;;;;;;;6095225;23;20101;-78
2022/03/05 11:18:37;;;;;;;24.02;14.23;;;;;;;;;;6094993;23;20347;-78
2022/03/05 11:21:03;;;;;;;20.60;13.85;;;;;;;;;;6094943;23;20448;-78
2022/03/05 11:23:30;;;;;;;22.13;14.00;;;;;;;;;;6094969;23;20081;-78
2022/03/05 11:25:56;;;;;;;19.85;13.60;;;;;;;;;;6095153;23;20053;-78
2022/03/05 11:28:23;;;;;;;22.17;14.38;;;;;;;;;;6094979;23;20089;-80
2022/03/05 11:30:54;;;;;;;22.48;14.38;;;;;;;;;;6095506;23;20096;-79
2022/03/05 11:33:26;;;;;;;22.95;14.50;;;;;;;;;;6070912;23;20014;-78
2022/03/05 11:36:02;;;;;;;21.17;14.30;;;;;;;;;;6095142;23;20555;-80
2022/03/05 11:38:35;;;;;;;21.13;14.80;;;;;;;;;;6070873;23;20010;-78
2022/03/05 11:41:20;;;;;;;22.00;14.70;;;;;;;;;;6094849;23;20009;-79
2022/03/05 11:43:49;;;;;;;21.40;13.82;;;;;;;;;;6071026;23;20249;-82
2022/03/05 11:46:23;;;;;;;22.42;14.88;;;;;;;;;;6094269;23;20092;-80
2022/03/05 11:49:03;;;;;;;22.42;14.38;;;;;;;;;;6094833;23;20096;-78
2022/03/05 11:51:29;;;;;;;21.80;14.15;;;;;;;;;;6071012;23;20046;-78
2022/03/05 11:54:14;;;;;;;22.05;14.90;;;;;;;;;;6094995;23;20360;-79
2022/03/05 11:56:40;;;;;;;;;;;;;;;;;;6071326;23;20017;-81
2022/03/05 11:59:24;;;;;;;22.17;14.43;;;;;;;;;;6119095;23;19913;-80
2022/03/05 12:01:51;;;;;;;20.67;14.55;;;;;;;;;;6070323;23;20034;-79
2022/03/05 12:04:22;;;;;;;23.05;14.90;;;;;;;;;;6094928;23;20014;-78
2022/03/05 12:06:51;;;;;;;23.17;14.65;;;;;;;;;;6070777;23;20014;-78
2022/03/05 12:09:33;;;;;;;21.10;14.13;;;;;;;;;;6094870;23;20173;-78
2022/03/05 12:11:59;;;;;;;20.77;14.25;;;;;;;;;;6094749;23;20383;-79
2022/03/05 12:14:44;;;;;;;19.75;13.55;;;;;;;;;;6094961;23;20022;-79
2022/03/05 12:17:10;;;;;;;21.65;14.73;;;;;;;;;;6092764;23;20360;-77
2022/03/05 12:19:44;;;;;;;21.63;14.65;;;;;;;;;;6069829;23;20014;-78
2022/03/05 12:22:14;;;;;;;22.85;15.20;;;;;;;;;;6094735;23;20041;-79
2022/03/05 12:24:40;;;;;;;23.88;14.95;;;;;;;;;;6094915;23;20013;-79
2022/03/05 12:27:09;;;;;;;24.52;14.65;;;;;;;;;;6094430;23;20535;-77
2022/03/05 12:29:35;;;;;;;22.48;14.65;;;;;;;;;;6094447;23;20284;-76
2022/03/05 12:32:01;;;;;;;23.48;15.55;;;;;;;;;;6094908;23;20045;-80
2022/03/05 12:34:27;;;;;;;23.45;15.05;;;;;;;;;;6070754;23;20088;-78
2022/03/05 12:36:53;;;;;;;21.48;14.45;;;;;;;;;;6094631;23;20021;-79
2022/03/05 12:39:23;;;;;;;24.23;15.30;;;;;;;;;;6094661;23;20018;-79
2022/03/05 12:41:49;;;;;;;22.67;15.32;;;;;;;;;;6070858;23;20069;-81
2022/03/05 12:44:15;;;;;;;25.33;15.77;;;;;;;;;;6070524;23;20025;-78
2022/03/05 12:46:41;;;;;;;23.45;15.00;;;;;;;;;;6070788;23;20296;-77
2022/03/05 12:49:11;;;;;;;23.58;15.10;;;;;;;;;;6094664;23;20093;-78
2022/03/05 12:51:37;;;;;;;24.30;14.77;;;;;;;;;;6070931;23;20017;-78
2022/03/05 12:54:04;;;;;;;21.10;14.65;;;;;;;;;;6094909;23;20328;-78
2022/03/05 12:56:30;;;;;;;21.42;13.65;;;;;;;;;;6094429;23;20021;-78
2022/03/05 12:58:58;;;;;;;22.85;14.85;;;;;;;;;;6094903;23;20464;-78
2022/03/05 13:01:24;;;;;;;23.98;15.40;;;;;;;;;;6094869;23;20081;-78
2022/03/05 13:03:50;;;;;;;22.08;14.32;;;;;;;;;;6094665;23;20051;-78
2022/03/05 13:06:18;;;;;;;22.10;14.27;;;;;;;;;;6094319;23;20024;-84
2022/03/05 13:08:44;;;;;;;25.25;15.63;;;;;;;;;;6094382;23;20074;-77
2022/03/05 13:11:17;;;;;;;21.92;14.98;;;;;;;;;;6120566;23;20508;-77
2022/03/05 13:13:45;;;;;;;23.83;14.63;;;;;;;;;;6070322;23;20041;-77
2022/03/05 13:16:11;;;;;;;23.52;14.45;;;;;;;;;;6094521;23;20014;-77
2022/03/05 13:18:38;;;;;;;23.45;15.07;;;;;;;;;;6070538;23;20014;-80
2022/03/05 13:21:06;;;;;;;23.40;14.75;;;;;;;;;;6070484;23;20022;-78
2022/03/05 13:23:34;;;;;;;23.45;15.48;;;;;;;;;;6095077;23;20093;-78
2022/03/05 13:26:00;;;;;;;22.98;14.55;;;;;;;;;;6094223;23;20014;-78
2022/03/05 13:28:27;;;;;;;23.58;14.85;;;;;;;;;;6094305;23;20637;-77
2022/03/05 13:30:54;;;;;;;24.25;15.57;;;;;;;;;;6094823;23;20014;-76
2022/03/05 13:33:38;;;;;;;25.10;15.05;;;;;;;;;;6095653;23;20330;-78
2022/03/05 13:36:14;;;;;;;22.63;15.05;;;;;;;;;;6096571;23;20045;-78
2022/03/05 13:38:40;;;;;;;24.08;14.82;;;;;;;;;;6096180;23;20416;-79
2022/03/05 13:41:12;;;;;;;24.23;15.85;;;;;;;;;;6095630;23;20010;-78
2022/03/05 13:43:38;;;;;;;22.38;14.38;;;;;;;;;;6096137;23;20010;-77
2022/03/05 13:46:08;;;;;;;25.77;16.08;;;;;;;;;;6095691;23;20018;-78
2022/03/05 13:48:46;;;;;;;25.33;15.30;;;;;;;;;;6071857;23;20452;-78
2022/03/05 13:51:17;;;;;;;23.95;15.55;;;;;;;;;;6072411;23;20464;-79
2022/03/05 13:53:44;;;;;;;25.13;15.23;;;;;;;;;;6096004;23;20022;-78
2022/03/05 13:56:10;;;;;;;24.52;15.02;;;;;;;;;;6072140;23;20036;-78
2022/03/05 13:58:38;;;;;;;22.02;15.60;;;;;;;;;;6095822;23;20065;-77
2022/03/05 14:01:12;;;;;;;24.77;15.63;;;;;;;;;;6071797;23;20028;-77
2022/03/05 14:03:38;;;;;;;23.17;15.52;;;;;;;;;;6096382;23;20026;-78
2022/03/05 14:06:14;;;;;;;24.08;15.68;;;;;;;;;;6095922;23;20026;-78
2022/03/05 14:08:47;;;;;;;24.65;15.45;;;;;;;;;;6096120;23;20452;-77
2022/03/05 14:11:13;;;;;;;23.80;15.10;;;;;;;;;;6096212;23;20482;-79
2022/03/05 14:13:46;;;;;;;24.50;15.35;;;;;;;;;;6095800;23;20010;-78
2022/03/05 14:16:32;;;;;;;27.48;16.20;;;;;;;;;;6095835;23;20361;-76
2022/03/05 14:18:58;;;;;;;23.92;15.25;;;;;;;;;;6071751;23;20014;-78
2022/03/05 14:21:24;;;;;;;25.73;16.40;;;;;;;;;;6071880;23;20407;-79